Time;durP1;ratioP1;P1;durP2;ratioP2;P2;SDS_P1;SDS_P2;PMS_P1;PMS_P2;Temp;Humidity;BMP_temperature;BMP_pressure;BME280_temperature;BME280_humidity;BME280_pressure;Samples;Min_cycle;Max_cycle;Signal;HPM_P1;HPM_P2
2024/01/09 00:02:00;;;;;;;10.63;5.47;;;-6.60;99.90;;;;;;5031484;28;20218;-80
2024/01/09 00:04:26;;;;;;;9.43;5.70;;;-6.60;1.00;;;;;;5033105;28;20170;-80
2024/01/09 00:06:51;;;;;;;8.33;4.93;;;-6.70;99.90;;;;;;5031565;28;20277;-79
2024/01/09 00:09:17;;;;;;;10.17;5.37;;;-6.70;99.90;;;;;;5031680;28;20206;-79
2024/01/09 00:11:42;;;;;;;9.10;5.47;;;-6.70;99.90;;;;;;5032799;28;20198;-79
2024/01/09 00:14:08;;;;;;;10.60;5.47;;;-6.70;99.90;;;;;;5032809;28;20186;-80
2024/01/09 00:16:33;;;;;;;10.67;4.97;;;-6.70;1.00;;;;;;5031797;28;20695;-79
2024/01/09 00:18:59;;;;;;;8.53;4.17;;;-6.60;99.90;;;;;;5032828;28;20213;-79
2024/01/09 00:21:24;;;;;;;9.60;5.07;;;-6.60;99.90;;;;;;5032248;28;20260;-79
2024/01/09 00:23:50;;;;;;;9.03;5.27;;;-6.70;99.90;;;;;;5031675;28;20178;-79
2024/01/09 00:26:15;;;;;;;10.77;5.53;;;-6.70;1.00;;;;;;5032650;28;20281;-79
2024/01/09 00:28:41;;;;;;;9.17;5.23;;;-6.70;1.00;;;;;;5032691;28;20185;-80
2024/01/09 00:31:07;;;;;;;10.37;5.60;;;-6.80;1.00;;;;;;5032511;28;20179;-79
2024/01/09 00:33:33;;;;;;;8.90;4.87;;;-6.90;1.00;;;;;;5032738;28;20604;-79
2024/01/09 00:35:58;;;;;;;9.93;4.63;;;-6.90;1.00;;;;;;5032576;28;20178;-79
2024/01/09 00:38:24;;;;;;;8.17;4.50;;;-6.90;1.00;;;;;;5031329;28;20421;-79
2024/01/09 00:40:49;;;;;;;10.50;4.57;;;-6.90;1.00;;;;;;5032454;28;20203;-79
2024/01/09 00:43:15;;;;;;;9.60;5.00;;;-6.90;1.00;;;;;;5031481;28;20171;-80
2024/01/09 00:45:40;;;;;;;14.50;6.10;;;-7.00;1.00;;;;;;5032569;28;20277;-79
2024/01/09 00:48:07;;;;;;;9.37;5.07;;;-7.00;1.00;;;;;;5031178;28;20202;-80
2024/01/09 00:50:32;;;;;;;10.17;5.10;;;-6.80;1.00;;;;;;5031263;28;20170;-79
2024/01/09 00:52:58;;;;;;;9.47;5.10;;;-6.80;99.90;;;;;;5032481;28;20433;-79
2024/01/09 00:55:24;;;;;;;8.60;3.67;;;-6.80;1.00;;;;;;5031567;28;20193;-80
2024/01/09 00:57:49;;;;;;;8.53;5.00;;;-6.80;1.00;;;;;;5034530;28;20190;-80
2024/01/09 01:00:15;;;;;;;10.40;4.97;;;-6.70;99.90;;;;;;5035887;28;20198;-79
2024/01/09 01:02:41;;;;;;;10.33;5.00;;;-6.80;99.90;;;;;;5035877;28;20619;-79
2024/01/09 01:05:06;;;;;;;8.50;5.43;;;-6.80;1.00;;;;;;5034193;28;20459;-80
2024/01/09 01:07:32;;;;;;;11.33;5.07;;;-6.80;1.00;;;;;;5034188;28;20220;-79
2024/01/09 01:09:57;;;;;;;9.23;4.87;;;-6.80;1.00;;;;;;5034454;28;20182;-79
2024/01/09 01:12:23;;;;;;;10.17;5.43;;;-6.80;1.00;;;;;;5034582;28;20167;-80
2024/01/09 01:14:48;;;;;;;8.57;4.67;;;-6.80;99.90;;;;;;5034461;28;20236;-79
2024/01/09 01:17:14;;;;;;;8.83;5.10;;;-6.80;99.90;;;;;;5034421;28;20194;-80
2024/01/09 01:19:40;;;;;;;6.93;4.37;;;-6.80;99.90;;;;;;5034180;28;20198;-79
2024/01/09 01:22:05;;;;;;;9.53;5.00;;;-6.80;99.90;;;;;;5034162;28;20167;-79
2024/01/09 01:24:31;;;;;;;8.50;5.23;;;-6.80;99.90;;;;;;5034343;28;20162;-79
2024/01/09 01:26:56;;;;;;;11.20;5.37;;;-6.80;1.00;;;;;;5035466;28;20195;-80
2024/01/09 01:29:22;;;;;;;7.70;4.70;;;-6.90;1.00;;;;;;5034263;28;20174;-79
2024/01/09 01:31:47;;;;;;;8.67;5.40;;;-6.80;99.90;;;;;;5035355;28;20654;-79
2024/01/09 01:34:13;;;;;;;9.07;4.83;;;-6.80;99.90;;;;;;5035410;28;20166;-79
2024/01/09 01:36:38;;;;;;;10.10;4.80;;;-6.80;1.00;;;;;;5033839;28;20198;-80
2024/01/09 01:39:04;;;;;;;10.30;5.53;;;-7.00;1.00;;;;;;5035375;28;20167;-79
2024/01/09 01:41:29;;;;;;;9.80;4.97;;;-7.00;1.00;;;;;;5033705;28;20223;-79
2024/01/09 01:43:55;;;;;;;8.10;5.13;;;-7.00;1.00;;;;;;5033941;28;20261;-79
2024/01/09 01:46:21;;;;;;;8.60;4.83;;;-7.00;1.00;;;;;;5033748;28;20211;-80
2024/01/09 01:48:47;;;;;;;8.87;5.30;;;-7.00;1.00;;;;;;5034957;28;20174;-80
2024/01/09 01:51:13;;;;;;;10.60;5.20;;;-7.10;1.00;;;;;;5034942;28;20508;-79
2024/01/09 01:53:39;;;;;;;10.93;5.27;;;-7.00;1.00;;;;;;5034952;28;20174;-79
2024/01/09 01:56:06;;;;;;;7.57;4.50;;;-7.00;1.00;;;;;;5033297;28;20425;-79
2024/01/09 01:58:32;;;;;;;9.47;5.17;;;-7.00;99.90;;;;;;5033421;28;20629;-79
2024/01/09 02:01:02;;;;;;;8.40;4.17;;;-7.00;99.90;;;;;;5033593;28;20492;-79
2024/01/09 02:03:28;;;;;;;11.63;5.37;;;-7.00;99.90;;;;;;5033411;28;20172;-79
2024/01/09 02:05:55;;;;;;;9.50;4.83;;;-7.00;99.90;;;;;;5033146;28;20413;-80
2024/01/09 02:08:24;;;;;;;7.60;4.23;;;-6.90;99.90;;;;;;5034319;28;20175;-79
2024/01/09 02:10:50;;;;;;;8.37;4.57;;;-6.90;99.90;;;;;;5033574;28;20428;-79
2024/01/09 02:13:16;;;;;;;8.23;4.63;;;-7.00;99.90;;;;;;5033288;28;20414;-79
2024/01/09 02:15:42;;;;;;;10.00;4.50;;;-7.00;99.90;;;;;;5034462;28;20262;-79
2024/01/09 02:18:08;;;;;;;9.07;4.47;;;-7.00;99.90;;;;;;5034547;28;20199;-79
2024/01/09 02:20:34;;;;;;;9.10;4.50;;;-7.00;99.90;;;;;;5033788;28;20234;-79
2024/01/09 02:23:00;;;;;;;7.63;4.43;;;-7.00;1.00;;;;;;5033385;28;20185;-79
2024/01/09 02:25:26;;;;;;;7.50;4.67;;;-7.10;73.60;;;;;;5033865;28;20175;-79
2024/01/09 02:28:11;;;;;;;7.53;4.60;;;-7.10;68.40;;;;;;5032973;28;20466;-79
2024/01/09 02:30:37;;;;;;;7.50;4.33;;;-7.10;97.80;;;;;;5034385;28;20401;-79
2024/01/09 02:33:03;;;;;;;7.13;4.10;;;-7.20;99.90;;;;;;5032791;28;20417;-79
2024/01/09 02:35:29;;;;;;;8.33;4.43;;;-7.10;42.20;;;;;;5033141;28;20421;-79
2024/01/09 02:37:55;;;;;;;8.33;4.47;;;-7.00;1.00;;;;;;5032902;28;20803;-79
2024/01/09 02:40:22;;;;;;;8.67;4.40;;;-7.00;1.00;;;;;;5033692;28;20225;-79
2024/01/09 02:42:47;;;;;;;7.97;4.57;;;-7.00;1.00;;;;;;5032756;28;20166;-79
2024/01/09 02:45:13;;;;;;;9.07;4.40;;;-7.00;1.00;;;;;;5034150;28;20471;-79
2024/01/09 02:47:39;;;;;;;8.53;5.03;;;-7.10;1.00;;;;;;5033832;28;20289;-79
2024/01/09 02:50:05;;;;;;;7.73;4.60;;;-7.10;1.00;;;;;;5032160;28;20178;-80
2024/01/09 02:52:30;;;;;;;8.03;4.80;;;-7.00;1.00;;;;;;5032481;28;20174;-80
2024/01/09 02:54:56;;;;;;;8.10;4.27;;;-7.00;1.00;;;;;;5032704;28;20420;-79
2024/01/09 02:57:22;;;;;;;6.97;4.27;;;-7.00;1.00;;;;;;5032200;28;20195;-79
2024/01/09 02:59:47;;;;;;;7.90;3.90;;;-7.10;1.00;;;;;;5033605;28;20203;-79
2024/01/09 03:02:13;;;;;;;7.33;4.27;;;-7.20;1.00;;;;;;5032398;28;20175;-80
2024/01/09 03:04:38;;;;;;;9.57;4.27;;;-7.20;1.00;;;;;;5032343;28;20182;-79
2024/01/09 03:07:04;;;;;;;7.30;4.67;;;-7.20;1.00;;;;;;5033434;28;20190;-79
2024/01/09 03:09:29;;;;;;;4.83;2.77;;;-7.20;1.00;;;;;;5032420;28;20166;-79
2024/01/09 03:11:55;;;;;;;7.70;4.27;;;-7.20;1.00;;;;;;5032142;28;20175;-80
2024/01/09 03:14:20;;;;;;;5.47;3.50;;;-7.20;1.00;;;;;;5032192;28;20171;-79
2024/01/09 03:16:47;;;;;;;7.57;4.07;;;-7.20;1.00;;;;;;5033428;28;20239;-79
2024/01/09 03:19:13;;;;;;;10.37;4.40;;;-7.20;1.00;;;;;;5031743;28;20209;-79
2024/01/09 03:21:39;;;;;;;9.00;4.33;;;-7.20;1.00;;;;;;5033352;28;20481;-79
2024/01/09 03:24:04;;;;;;;7.83;4.50;;;-7.20;1.00;;;;;;5033302;28;20182;-80
2024/01/09 03:26:30;;;;;;;6.97;4.33;;;-7.10;1.00;;;;;;5032086;28;20205;-79
2024/01/09 03:28:55;;;;;;;9.77;4.60;;;-7.10;1.00;;;;;;5032154;28;20178;-79
2024/01/09 03:31:22;;;;;;;8.57;4.47;;;-7.10;1.00;;;;;;5032879;28;20227;-79
2024/01/09 03:33:48;;;;;;;7.87;4.20;;;-7.10;1.00;;;;;;5031952;28;20277;-79
2024/01/09 03:36:14;;;;;;;7.77;4.30;;;-7.20;1.00;;;;;;5032726;28;20413;-79
2024/01/09 03:38:44;;;;;;;6.93;4.00;;;-7.10;1.00;;;;;;5031947;28;20438;-79
2024/01/09 03:41:10;;;;;;;8.17;4.10;;;-7.10;1.00;;;;;;5032967;28;20625;-79
2024/01/09 03:43:35;;;;;;;8.23;4.27;;;-7.10;1.00;;;;;;5033070;28;20505;-79
2024/01/09 03:46:01;;;;;;;8.43;4.70;;;-7.20;1.00;;;;;;5031657;28;20453;-79
2024/01/09 03:48:27;;;;;;;9.80;4.30;;;-7.20;1.00;;;;;;5031811;28;20185;-79
2024/01/09 03:50:53;;;;;;;8.33;4.13;;;-7.20;1.00;;;;;;5031802;28;20228;-79
2024/01/09 03:53:18;;;;;;;6.33;4.17;;;-7.20;1.00;;;;;;5032020;28;20179;-79
2024/01/09 03:55:45;;;;;;;7.83;4.23;;;-7.20;1.00;;;;;;5031650;28;20261;-79
2024/01/09 03:58:11;;;;;;;9.40;4.40;;;-7.20;1.00;;;;;;5032924;28;20218;-79
2024/01/09 04:00:38;;;;;;;6.57;3.80;;;-7.20;1.00;;;;;;5032723;28;20492;-79
2024/01/09 04:03:04;;;;;;;7.00;4.10;;;-7.20;1.00;;;;;;5032020;28;20177;-79
2024/01/09 04:05:30;;;;;;;7.70;3.93;;;-7.20;1.00;;;;;;5031565;28;20417;-79
2024/01/09 04:07:55;;;;;;;6.30;3.83;;;-7.20;1.00;;;;;;5031621;28;20425;-79
2024/01/09 04:10:21;;;;;;;7.43;4.03;;;-7.30;1.00;;;;;;5032301;28;20170;-79
2024/01/09 04:12:46;;;;;;;6.20;3.93;;;-7.20;1.00;;;;;;5033082;28;20175;-79
2024/01/09 04:15:12;;;;;;;6.70;3.80;;;-7.20;1.00;;;;;;5032700;28;20701;-79
2024/01/09 04:17:38;;;;;;;7.00;4.10;;;-7.10;1.00;;;;;;5028228;28;20231;-79
2024/01/09 04:20:04;;;;;;;8.23;4.30;;;-7.10;1.00;;;;;;5028244;28;20253;-79
2024/01/09 04:22:30;;;;;;;8.90;4.37;;;-7.10;1.00;;;;;;5012605;28;20182;-80
2024/01/09 04:24:56;;;;;;;6.90;4.20;;;-7.10;1.00;;;;;;5013005;28;20414;-80
2024/01/09 04:27:21;;;;;;;7.77;4.40;;;-7.20;99.90;;;;;;5013089;28;20238;-80
2024/01/09 04:29:47;;;;;;;8.90;4.80;;;-7.30;99.90;;;;;;5014007;28;20526;-79
2024/01/09 04:32:13;;;;;;;8.27;4.30;;;-7.40;99.90;;;;;;5031707;28;20194;-79
2024/01/09 04:34:38;;;;;;;9.10;4.70;;;-7.50;99.90;;;;;;5015286;28;20262;-79
2024/01/09 04:37:04;;;;;;;8.57;4.43;;;-7.50;99.90;;;;;;5016892;28;20242;-79
2024/01/09 04:39:29;;;;;;;9.63;4.20;;;-7.60;1.00;;;;;;5016339;28;20179;-79
2024/01/09 04:41:55;;;;;;;8.67;4.00;;;-7.60;1.00;;;;;;5016441;28;20199;-79
2024/01/09 04:44:21;;;;;;;7.77;4.20;;;-7.60;1.00;;;;;;5015118;28;20172;-79
2024/01/09 04:46:47;;;;;;;5.93;3.87;;;-7.60;1.00;;;;;;5016698;28;20203;-79
2024/01/09 04:49:12;;;;;;;6.87;4.27;;;-7.60;1.00;;;;;;5031721;28;20171;-81
2024/01/09 04:51:38;;;;;;;7.90;4.03;;;-7.60;1.00;;;;;;5016465;28;20183;-80
2024/01/09 04:54:04;;;;;;;7.63;4.10;;;-7.50;1.00;;;;;;5015207;28;20175;-79
2024/01/09 04:56:29;;;;;;;6.63;3.97;;;-7.50;1.00;;;;;;5031824;28;20821;-79
2024/01/09 04:58:55;;;;;;;7.97;4.37;;;-7.50;99.90;;;;;;5015207;28;20282;-78
2024/01/09 05:01:21;;;;;;;7.33;4.13;;;-7.50;99.90;;;;;;5014780;28;20195;-79
2024/01/09 05:03:48;;;;;;;7.90;3.93;;;-7.50;99.90;;;;;;5016325;28;20183;-79
2024/01/09 05:06:17;;;;;;;7.27;4.00;;;-7.50;99.90;;;;;;5014971;28;20780;-79
2024/01/09 05:08:44;;;;;;;6.70;3.90;;;-7.50;99.90;;;;;;5031582;28;20419;-80
2024/01/09 05:11:09;;;;;;;8.50;3.87;;;-7.50;99.90;;;;;;5031307;28;20414;-79
2024/01/09 05:13:35;;;;;;;9.27;4.57;;;-7.50;99.90;;;;;;5016050;28;20430;-80
2024/01/09 05:16:01;;;;;;;8.10;4.17;;;-7.50;99.90;;;;;;5015990;28;20186;-79
2024/01/09 05:18:26;;;;;;;8.53;4.57;;;-7.60;99.90;;;;;;5034353;28;20209;-79
2024/01/09 05:20:52;;;;;;;7.00;3.73;;;-7.60;99.90;;;;;;5033718;28;20198;-79
2024/01/09 05:23:17;;;;;;;7.33;4.23;;;-7.60;99.90;;;;;;5034283;28;20225;-79
2024/01/09 05:25:43;;;;;;;6.27;3.60;;;-7.50;99.90;;;;;;5034476;28;20224;-79
2024/01/09 05:28:09;;;;;;;6.20;3.83;;;-7.60;99.90;;;;;;5035233;28;20357;-79
2024/01/09 05:30:35;;;;;;;7.20;3.60;;;-7.60;99.90;;;;;;5034115;28;20170;-79
2024/01/09 05:33:00;;;;;;;7.60;4.20;;;-7.60;99.90;;;;;;5035285;28;20189;-79
2024/01/09 05:35:26;;;;;;;7.13;3.90;;;-7.50;99.90;;;;;;5035450;28;20722;-79
2024/01/09 05:37:51;;;;;;;7.73;4.10;;;-7.50;99.90;;;;;;5035097;28;20573;-79
2024/01/09 05:40:17;;;;;;;7.00;4.03;;;-7.50;99.90;;;;;;5035321;28;20241;-79
2024/01/09 05:42:43;;;;;;;7.37;4.20;;;-7.50;96.80;;;;;;5033008;28;20175;-79
2024/01/09 05:45:10;;;;;;;8.33;4.00;;;-7.40;5.90;;;;;;5034047;28;20266;-79
2024/01/09 05:47:35;;;;;;;6.40;3.27;;;-7.50;26.60;;;;;;5033750;28;20473;-79
2024/01/09 05:50:01;;;;;;;7.90;4.50;;;-7.50;99.90;;;;;;5034701;28;20938;-79
2024/01/09 05:52:27;;;;;;;7.50;4.20;;;-7.50;55.30;;;;;;5033741;28;20178;-79
2024/01/09 05:54:52;;;;;;;7.40;3.90;;;-7.60;99.90;;;;;;5033775;28;20182;-79
2024/01/09 05:57:18;;;;;;;8.57;4.63;;;-7.50;99.90;;;;;;5033763;28;20202;-79
2024/01/09 05:59:44;;;;;;;7.77;4.10;;;-7.50;99.90;;;;;;5033386;28;20651;-79
2024/01/09 06:02:10;;;;;;;6.73;3.43;;;-7.50;69.40;;;;;;5034540;28;20221;-79
2024/01/09 06:04:35;;;;;;;6.87;4.00;;;-7.50;31.90;;;;;;5034511;28;20508;-79
2024/01/09 06:07:01;;;;;;;6.90;4.30;;;-7.50;1.00;;;;;;5034652;28;20198;-78
2024/01/09 06:09:27;;;;;;;9.27;4.60;;;-7.60;20.20;;;;;;5033282;28;20182;-79
2024/01/09 06:11:52;;;;;;;7.13;3.87;;;-7.50;99.90;;;;;;5033271;28;20185;-80
2024/01/09 06:14:18;;;;;;;7.73;4.30;;;-7.60;65.80;;;;;;5034372;28;20166;-79
2024/01/09 06:16:43;;;;;;;7.07;4.23;;;-7.50;43.10;;;;;;5034606;28;20556;-80
2024/01/09 06:19:09;;;;;;;6.37;4.00;;;-7.50;1.00;;;;;;5033898;28;20202;-81
2024/01/09 06:21:35;;;;;;;7.23;4.17;;;-7.50;1.00;;;;;;5032320;28;20244;-82
2024/01/09 06:24:01;;;;;;;8.00;3.90;;;-7.50;7.00;;;;;;5033611;28;20208;-81
2024/01/09 06:26:27;;;;;;;9.67;4.10;;;-7.40;1.00;;;;;;5032343;28;20202;-79
2024/01/09 06:28:52;;;;;;;5.47;3.53;;;-7.00;99.90;;;;;;5031892;28;20967;-79
2024/01/09 06:31:18;;;;;;;6.60;3.93;;;-6.60;1.00;;;;;;5035492;28;20620;-78
2024/01/09 06:33:43;;;;;;;6.80;4.13;;;-6.10;1.00;;;;;;5033517;28;20726;-81
2024/01/09 06:36:09;;;;;;;7.63;4.00;;;-6.00;99.90;;;;;;5034312;28;20181;-81
2024/01/09 06:38:35;;;;;;;8.40;4.00;;;-6.20;99.90;;;;;;5032418;28;20527;-81
2024/01/09 06:41:00;;;;;;;6.03;3.80;;;-6.60;90.00;;;;;;5032264;28;20209;-81
2024/01/09 06:43:26;;;;;;;7.63;3.93;;;-6.80;99.90;;;;;;5033858;28;20532;-80
2024/01/09 06:45:51;;;;;;;7.93;4.43;;;-7.00;99.90;;;;;;5032759;28;20170;-82
2024/01/09 06:48:17;;;;;;;7.47;4.37;;;-7.00;99.90;;;;;;5032254;28;20198;-81
2024/01/09 06:50:43;;;;;;;9.63;4.77;;;-7.20;99.90;;;;;;5032195;28;20167;-82
2024/01/09 06:53:08;;;;;;;8.37;4.40;;;-7.30;1.00;;;;;;5032646;28;20174;-82
2024/01/09 06:55:34;;;;;;;8.80;4.43;;;-7.30;1.00;;;;;;5032193;28;20409;-82
2024/01/09 06:58:02;;;;;;;9.67;4.83;;;-7.40;1.00;;;;;;5031912;28;20198;-80
2024/01/09 07:00:28;;;;;;;9.40;4.53;;;-7.40;1.00;;;;;;5032192;28;20198;-79
2024/01/09 07:02:53;;;;;;;7.70;4.87;;;-7.50;1.00;;;;;;5033601;28;20406;-80
2024/01/09 07:05:19;;;;;;;8.17;4.60;;;-7.50;1.00;;;;;;5032547;28;20171;-80
2024/01/09 07:07:44;;;;;;;8.63;4.70;;;-7.60;1.00;;;;;;5032378;28;20656;-80
2024/01/09 07:10:10;;;;;;;7.40;4.30;;;-7.70;1.00;;;;;;5032160;28;20182;-80
2024/01/09 07:12:35;;;;;;;9.37;3.90;;;-7.60;1.00;;;;;;5033434;28;20170;-80
2024/01/09 07:15:01;;;;;;;9.33;4.77;;;-7.60;99.90;;;;;;5032202;28;20178;-80
2024/01/09 07:17:27;;;;;;;7.77;4.33;;;-7.60;99.90;;;;;;5032087;28;20308;-80
2024/01/09 07:19:52;;;;;;;8.57;4.60;;;-7.50;99.90;;;;;;5031699;28;20952;-80
2024/01/09 07:22:18;;;;;;;7.87;4.23;;;-7.50;99.90;;;;;;5033140;28;20186;-81
2024/01/09 07:24:44;;;;;;;6.93;4.43;;;-7.50;99.90;;;;;;5031999;28;20174;-81
2024/01/09 07:27:09;;;;;;;7.50;4.50;;;-7.60;99.90;;;;;;5030259;28;20214;-80
2024/01/09 07:29:35;;;;;;;10.13;4.67;;;-7.50;99.90;;;;;;5012151;28;20183;-80
2024/01/09 07:32:00;;;;;;;7.80;4.37;;;-7.70;99.90;;;;;;5011900;28;20178;-81
2024/01/09 07:34:26;;;;;;;7.67;4.40;;;-7.60;1.00;;;;;;5020849;28;20655;-80
2024/01/09 07:36:51;;;;;;;8.63;4.10;;;-7.60;99.90;;;;;;5031938;28;20215;-80
2024/01/09 07:39:17;;;;;;;8.77;4.40;;;-7.50;99.90;;;;;;5031734;28;20170;-79
2024/01/09 07:41:43;;;;;;;8.23;4.20;;;-7.40;99.90;;;;;;5032752;28;20224;-80
2024/01/09 07:44:08;;;;;;;9.37;4.77;;;-7.50;95.90;;;;;;5031967;28;20216;-80
2024/01/09 07:46:34;;;;;;;35.87;15.17;;;-7.10;99.90;;;;;;5032645;28;20210;-80
2024/01/09 07:48:59;;;;;;;14.33;8.00;;;-6.60;1.00;;;;;;5033114;28;20666;-80
2024/01/09 07:51:25;;;;;;;16.60;10.10;;;-6.60;1.00;;;;;;5032623;28;20213;-80
2024/01/09 07:53:51;;;;;;;12.67;6.70;;;-6.90;1.00;;;;;;5032750;28;20211;-80
2024/01/09 07:56:17;;;;;;;11.67;6.23;;;-6.90;1.00;;;;;;5032539;28;20617;-80
2024/01/09 07:58:43;;;;;;;8.13;5.37;;;-7.10;1.00;;;;;;5032978;28;20178;-80
2024/01/09 08:01:11;;;;;;;9.60;6.00;;;-7.20;1.00;;;;;;5032477;28;20453;-81
2024/01/09 08:03:37;;;;;;;8.30;4.57;;;-7.30;1.00;;;;;;5032580;28;20914;-80
2024/01/09 08:06:02;;;;;;;7.37;4.33;;;-7.30;1.00;;;;;;5035656;28;20413;-81
2024/01/09 08:08:28;;;;;;;6.03;3.93;;;-7.30;1.00;;;;;;5035237;28;20171;-80
2024/01/09 08:10:53;;;;;;;8.30;4.07;;;-7.30;1.00;;;;;;5034894;28;20178;-79
2024/01/09 08:13:19;;;;;;;9.00;4.17;;;-7.30;1.00;;;;;;5035515;28;20236;-79
2024/01/09 08:15:45;;;;;;;8.77;4.50;;;-7.30;1.00;;;;;;5036602;28;20675;-80
2024/01/09 08:18:10;;;;;;;11.23;5.80;;;-7.30;1.00;;;;;;5036686;28;20561;-79
2024/01/09 08:20:36;;;;;;;8.53;4.93;;;-7.30;1.00;;;;;;5034867;28;20270;-79
2024/01/09 08:23:02;;;;;;;12.53;4.60;;;-7.40;1.00;;;;;;5036271;28;20198;-79
2024/01/09 08:25:28;;;;;;;7.77;4.20;;;-7.40;1.00;;;;;;5036235;28;20176;-79
2024/01/09 08:27:53;;;;;;;7.10;4.53;;;-7.40;1.00;;;;;;5035717;28;20428;-79
2024/01/09 08:30:19;;;;;;;7.13;4.20;;;-7.30;1.00;;;;;;5035744;28;20214;-79
2024/01/09 08:32:45;;;;;;;9.07;5.70;;;-7.30;1.00;;;;;;5036163;28;20245;-80
2024/01/09 08:35:10;;;;;;;9.90;5.67;;;-7.30;1.00;;;;;;5034454;28;20179;-79
2024/01/09 08:37:36;;;;;;;10.00;5.50;;;-7.30;1.00;;;;;;5035988;28;20686;-79
2024/01/09 08:40:02;;;;;;;9.23;5.13;;;-7.30;1.00;;;;;;5034599;28;20194;-79
2024/01/09 08:42:28;;;;;;;7.47;4.70;;;-7.30;1.00;;;;;;5034646;28;20170;-79
2024/01/09 08:44:53;;;;;;;9.57;4.87;;;-7.20;1.00;;;;;;5035766;28;20174;-79
2024/01/09 08:47:19;;;;;;;7.83;5.23;;;-7.10;1.00;;;;;;5034282;28;20235;-79
2024/01/09 08:49:44;;;;;;;8.77;5.00;;;-7.10;1.00;;;;;;5034551;28;20171;-79
2024/01/09 08:52:10;;;;;;;8.40;4.37;;;-7.10;1.00;;;;;;5034323;28;20664;-80
2024/01/09 08:54:35;;;;;;;8.73;4.83;;;-7.00;1.00;;;;;;5034539;28;20197;-80
2024/01/09 08:57:01;;;;;;;9.77;4.77;;;-7.00;1.00;;;;;;5035507;28;20194;-79
2024/01/09 08:59:26;;;;;;;9.20;5.40;;;-6.80;1.00;;;;;;5035542;28;20228;-80
2024/01/09 09:01:52;;;;;;;11.50;6.10;;;-6.70;1.00;;;;;;5035127;28;20208;-79
2024/01/09 09:04:18;;;;;;;9.77;5.53;;;-6.60;1.00;;;;;;5034383;28;20213;-79
2024/01/09 09:06:43;;;;;;;11.27;6.40;;;-6.50;1.00;;;;;;5035464;28;20195;-80
2024/01/09 09:09:09;;;;;;;8.87;4.73;;;-6.40;1.00;;;;;;5035357;28;20717;-79
2024/01/09 09:11:35;;;;;;;9.63;5.27;;;-6.30;1.00;;;;;;5034170;28;20265;-79
2024/01/09 09:14:00;;;;;;;10.03;5.33;;;-6.20;1.00;;;;;;5034275;28;20197;-80
2024/01/09 09:16:28;;;;;;;9.53;4.90;;;-6.10;1.00;;;;;;5033867;28;20190;-79
2024/01/09 09:18:54;;;;;;;7.27;3.80;;;-6.00;1.00;;;;;;5034028;28;20190;-80
2024/01/09 09:21:20;;;;;;;9.23;5.00;;;-5.90;1.00;;;;;;5034861;28;20457;-80
2024/01/09 09:23:46;;;;;;;10.17;5.07;;;-5.80;99.90;;;;;;5033979;28;20201;-79
2024/01/09 09:26:12;;;;;;;7.50;4.43;;;-5.70;99.90;;;;;;5033633;28;20210;-80
2024/01/09 09:28:37;;;;;;;11.00;5.70;;;-5.70;99.90;;;;;;5033955;28;20171;-81
2024/01/09 09:31:03;;;;;;;9.40;5.53;;;-5.60;99.90;;;;;;5033579;28;20171;-79
2024/01/09 09:33:31;;;;;;;6.70;4.20;;;-5.50;99.90;;;;;;5035064;28;20170;-80
2024/01/09 09:35:57;;;;;;;7.80;4.50;;;-5.40;99.90;;;;;;5033790;28;20205;-79
2024/01/09 09:38:24;;;;;;;11.53;5.30;;;-5.30;99.90;;;;;;5034942;28;20417;-81
2024/01/09 09:40:50;;;;;;;9.57;5.10;;;-5.20;99.90;;;;;;5034807;28;20202;-80
2024/01/09 09:43:24;;;;;;;10.53;5.87;;;-5.10;99.90;;;;;;5034896;28;20416;-79
2024/01/09 09:45:54;;;;;;;11.27;5.60;;;-5.10;99.90;;;;;;5034777;28;20391;-80
2024/01/09 09:48:23;;;;;;;7.80;4.37;;;-4.90;99.90;;;;;;5034548;28;20961;-79
2024/01/09 09:50:53;;;;;;;9.00;4.60;;;-4.80;99.90;;;;;;5033459;28;20441;-79
2024/01/09 09:53:20;;;;;;;10.10;4.33;;;-4.80;99.90;;;;;;5033406;28;20497;-80
2024/01/09 09:55:46;;;;;;;10.30;4.83;;;-4.80;99.90;;;;;;5033887;28;20419;-79
2024/01/09 09:58:12;;;;;;;9.23;5.10;;;-4.60;99.90;;;;;;5032975;28;20818;-78
2024/01/09 10:00:37;;;;;;;7.93;5.03;;;-4.70;99.90;;;;;;5033150;28;20450;-77
2024/01/09 10:03:08;;;;;;;9.87;5.23;;;-4.70;99.90;;;;;;5034641;28;20221;-78
2024/01/09 10:05:38;;;;;;;7.07;4.37;;;-4.50;99.90;;;;;;5034499;28;20171;-78
2024/01/09 10:08:06;;;;;;;8.10;4.13;;;-4.50;80.80;;;;;;5034036;28;20430;-78
2024/01/09 10:10:32;;;;;;;9.67;6.20;;;-4.60;45.20;;;;;;5032920;28;20421;-78
2024/01/09 10:12:58;;;;;;;8.07;4.80;;;-4.40;99.90;;;;;;5034262;28;20417;-78
2024/01/09 10:15:24;;;;;;;7.87;4.10;;;-4.10;54.90;;;;;;5032999;28;20240;-78
2024/01/09 10:17:51;;;;;;;8.87;4.83;;;-4.10;10.80;;;;;;5031940;28;20201;-78
2024/01/09 10:20:17;;;;;;;9.10;4.90;;;-4.00;18.30;;;;;;5034139;28;20209;-79
2024/01/09 10:22:42;;;;;;;8.13;5.10;;;-4.00;1.00;;;;;;5033100;28;20475;-78
2024/01/09 10:25:10;;;;;;;6.77;3.67;;;-4.00;1.00;;;;;;5032919;28;20246;-78
2024/01/09 10:27:37;;;;;;;7.83;4.80;;;-4.00;1.00;;;;;;5033869;28;20188;-79
2024/01/09 10:30:04;;;;;;;8.60;4.73;;;-3.90;11.50;;;;;;5032502;28;20419;-78
2024/01/09 10:32:36;;;;;;;9.97;4.70;;;-3.90;4.10;;;;;;5032389;28;20872;-79
2024/01/09 10:35:07;;;;;;;8.87;4.33;;;-3.90;1.00;;;;;;5032782;28;20421;-78
2024/01/09 10:37:36;;;;;;;6.73;4.10;;;-3.80;1.00;;;;;;5032520;28;20436;-78
2024/01/09 10:40:04;;;;;;;8.77;5.00;;;-3.70;1.00;;;;;;5033991;28;20469;-78
2024/01/09 10:42:30;;;;;;;8.17;4.70;;;-3.60;1.00;;;;;;5032335;28;20267;-79
2024/01/09 10:44:59;;;;;;;11.47;5.60;;;-3.60;1.00;;;;;;5033838;28;20986;-79
2024/01/09 10:47:27;;;;;;;8.67;4.83;;;-3.60;1.00;;;;;;5047062;22;20522;-77
2024/01/09 10:49:54;;;;;;;8.50;4.30;;;-3.50;1.00;;;;;;5032677;28;20461;-77
2024/01/09 10:52:20;;;;;;;5.73;4.23;;;-3.40;1.00;;;;;;5032964;28;20434;-78
2024/01/09 10:54:46;;;;;;;8.97;4.93;;;-3.30;1.00;;;;;;5033114;28;20492;-82
2024/01/09 10:57:13;;;;;;;9.27;4.97;;;-3.30;1.00;;;;;;5032066;28;20443;-80
2024/01/09 10:59:41;;;;;;;9.40;4.90;;;-3.20;1.00;;;;;;5031716;28;20793;-80
2024/01/09 11:02:17;;;;;;;7.80;4.60;;;-3.20;1.00;;;;;;5032636;28;20452;-81
2024/01/09 11:04:44;;;;;;;8.17;5.17;;;-3.10;1.00;;;;;;5031776;28;20195;-80
2024/01/09 11:07:15;;;;;;;8.57;5.50;;;-3.10;1.00;;;;;;5032907;28;20437;-81
2024/01/09 11:09:45;;;;;;;10.10;5.87;;;-2.90;1.00;;;;;;5032209;28;20186;-80
2024/01/09 11:12:18;;;;;;;12.20;6.60;;;-2.90;1.00;;;;;;5031773;28;20315;-80
2024/01/09 11:14:48;;;;;;;9.13;4.97;;;-2.80;1.00;;;;;;5032151;28;20159;-80
2024/01/09 11:17:15;;;;;;;9.80;5.87;;;-2.60;1.00;;;;;;5033095;28;20211;-80
2024/01/09 11:19:41;;;;;;;10.57;6.40;;;-2.70;1.00;;;;;;5034585;28;20182;-80
2024/01/09 11:22:14;;;;;;;7.93;5.13;;;-2.70;1.00;;;;;;5031722;28;20213;-80
2024/01/09 11:24:40;;;;;;;11.77;5.77;;;-2.60;1.00;;;;;;5031964;28;20170;-81
2024/01/09 11:27:10;;;;;;;7.67;4.77;;;-2.30;1.00;;;;;;5032207;28;20190;-83
2024/01/09 11:29:53;;;;;;;10.57;5.67;;;-1.80;1.00;;;;;;5031299;28;20174;-81
2024/01/09 11:32:24;;;;;;;9.67;5.43;;;-1.80;1.00;;;;;;5032436;28;20209;-83
2024/01/09 11:35:14;;;;;;;8.97;5.70;;;-1.80;1.00;;;;;;5031876;28;20181;-80
2024/01/09 11:37:42;;;;;;;10.97;6.07;;;-1.70;1.00;;;;;;5031917;28;20244;-85
2024/01/09 11:40:09;;;;;;;8.87;5.37;;;-1.60;1.00;;;;;;5030302;28;20198;-85
2024/01/09 11:42:42;;;;;;;10.33;6.07;;;-1.70;1.00;;;;;;5032074;28;20197;-84
2024/01/09 11:45:08;;;;;;;9.70;6.03;;;-1.50;1.00;;;;;;5031217;28;20182;-80
2024/01/09 11:47:37;;;;;;;28.90;15.97;;;-1.60;1.00;;;;;;5031008;28;20206;-83
2024/01/09 11:50:08;;;;;;;17.63;10.33;;;-1.40;1.00;;;;;;5031064;28;20181;-81
2024/01/09 11:52:35;;;;;;;12.83;7.57;;;-1.00;1.00;;;;;;5032353;28;20290;-81
2024/01/09 11:55:02;;;;;;;9.37;5.43;;;-1.10;1.00;;;;;;5031413;28;20187;-81
2024/01/09 11:57:28;;;;;;;7.97;5.67;;;-1.20;1.00;;;;;;5032567;28;20224;-81
2024/01/09 11:59:54;;;;;;;8.07;5.00;;;-1.20;1.00;;;;;;5033347;28;20564;-83
2024/01/09 12:02:20;;;;;;;10.40;5.37;;;-1.20;1.00;;;;;;5032576;28;20167;-82
2024/01/09 12:04:46;;;;;;;10.97;5.70;;;-1.30;1.00;;;;;;5033999;28;20170;-81
2024/01/09 12:07:14;;;;;;;8.67;5.13;;;-1.40;1.00;;;;;;5033405;28;20213;-81
2024/01/09 12:09:40;;;;;;;8.67;5.90;;;-1.50;1.00;;;;;;5033265;28;20550;-81
2024/01/09 12:12:10;;;;;;;12.03;7.10;;;-1.40;1.00;;;;;;5033065;28;20690;-80
2024/01/09 12:14:35;;;;;;;11.63;6.80;;;-1.30;1.00;;;;;;5033394;28;20170;-80
2024/01/09 12:17:19;;;;;;;11.70;5.93;;;-1.40;1.00;;;;;;5033201;28;20230;-81
2024/01/09 12:19:45;;;;;;;10.03;5.80;;;-1.40;1.00;;;;;;5033173;28;20170;-81
2024/01/09 12:22:11;;;;;;;9.70;6.03;;;-1.30;1.00;;;;;;5031637;28;20174;-81
2024/01/09 12:24:37;;;;;;;10.73;6.10;;;-1.50;1.00;;;;;;5033290;28;20179;-83
2024/01/09 12:27:03;;;;;;;8.70;5.67;;;-1.30;1.00;;;;;;5032245;28;20199;-83
2024/01/09 12:29:30;;;;;;;8.97;5.63;;;-1.40;1.00;;;;;;5031770;28;20184;-81
2024/01/09 12:31:56;;;;;;;11.57;7.40;;;-1.40;1.00;;;;;;5031425;28;20171;-81
2024/01/09 12:34:22;;;;;;;12.70;6.73;;;-1.50;1.00;;;;;;5032558;28;20186;-80
2024/01/09 12:36:48;;;;;;;9.83;5.87;;;-1.50;1.00;;;;;;5032754;28;20397;-81
2024/01/09 12:39:19;;;;;;;9.97;6.33;;;-1.40;1.00;;;;;;5031318;28;20617;-81
2024/01/09 12:41:44;;;;;;;11.37;7.17;;;-1.00;1.00;;;;;;5032904;28;20560;-81
2024/01/09 12:44:14;;;;;;;9.07;5.73;;;-0.70;1.00;;;;;;5031174;28;20199;-81
2024/01/09 12:46:44;;;;;;;10.37;6.33;;;-0.80;1.00;;;;;;5031197;28;20179;-81